This is the latest recevied weather packets stored in our database for station/object PY2UEP-1. If no packets are shown the sender has not sent any weather packets the latest 10 day(s).
| Time | Temp. | Humidity | Pressure | Rain* | Wind** | Luminosity | Snow |
|---|---|---|---|---|---|---|---|
| 1788017104 | 30.56° C | 47% | 1014.6 hPa | 0 mm | - | - | - |
| 1788016804 | 30.56° C | 47% | 1014.7 hPa | 0 mm | - | - | - |
| 1788016504 | 30.56° C | 47% | 1014.8 hPa | 0 mm | - | - | - |
| 1788016204 | 30.56° C | 47% | 1014.8 hPa | 0 mm | - | - | - |
| 1788015904 | 30.56° C | 46% | 1015.1 hPa | 0 mm | - | - | - |
| 1788015604 | 30.56° C | 46% | 1015.1 hPa | 0 mm | - | - | - |
| 1788015303 | 30° C | 47% | 1015.1 hPa | 0 mm | - | - | - |
| 1788015004 | 30° C | 47% | 1015.1 hPa | 0 mm | - | - | - |
| 1788014703 | 30° C | 46% | 1015.2 hPa | 0 mm | - | - | - |
| 1788014403 | 30.56° C | 46% | 1015.2 hPa | 0 mm | - | - | - |
| 1788014103 | 30.56° C | 44% | 1015.2 hPa | 0 mm | - | - | - |
| 1788013803 | 31.11° C | 44% | 1015.3 hPa | 0 mm | - | - | - |
| 1788013503 | 30.56° C | 45% | 1015.4 hPa | 0 mm | - | - | - |
| 1788013204 | 30° C | 46% | 1015.5 hPa | 0 mm | - | - | - |
| 1788012903 | 30° C | 47% | 1015.5 hPa | 0 mm | - | - | - |
| 1788012603 | 30° C | 47% | 1015.5 hPa | 0 mm | - | - | - |
| 1788012304 | 28.89° C | 50% | 1015.6 hPa | 0 mm | - | - | - |
| 1788012003 | 28.33° C | 50% | 1015.7 hPa | 0 mm | - | - | - |
| 1788011703 | 28.89° C | 49% | 1015.7 hPa | 0 mm | - | - | - |
| 1788011404 | 28.89° C | 48% | 1015.8 hPa | 0 mm | - | - | - |
| 1788011103 | 29.44° C | 46% | 1016.1 hPa | 0 mm | - | - | - |
| 1788010803 | 29.44° C | 48% | 1015.8 hPa | 0 mm | - | - | - |
| 1788010504 | 29.44° C | 47% | 1016.1 hPa | 0 mm | - | - | - |
| 1788010203 | 29.44° C | 48% | 1016 hPa | 0 mm | - | - | - |
| 1788009903 | 29.44° C | 47% | 1015.8 hPa | 0 mm | - | - | - |
* Rain since midnight (hover to see other rain measurements)
** Current wind speed in m/s (hover to see current wind gust speed)